Time;durP1;ratioP1;P1;durP2;ratioP2;P2;SDS_P1;SDS_P2;PMS_P1;PMS_P2;Temp;Humidity;BMP_temperature;BMP_pressure;BME280_temperature;BME280_humidity;BME280_pressure;Samples;Min_cycle;Max_cycle;Signal;HPM_P1;HPM_P2
2023/02/18 00:03:33;;;;;;;19.20;9.40;;;;;;;;;;10399663;28;20013;-75
2023/02/18 00:08:33;;;;;;;19.05;8.90;;;;;;;;;;10383463;28;20029;-75
2023/02/18 00:13:34;;;;;;;18.80;9.20;;;;;;;;;;10375198;28;20446;-75
2023/02/18 00:18:34;;;;;;;15.90;9.68;;;;;;;;;;10383229;28;20026;-69
2023/02/18 00:23:35;;;;;;;18.88;10.30;;;;;;;;;;10383456;28;20025;-73
2023/02/18 00:28:35;;;;;;;20.67;10.02;;;;;;;;;;10383233;28;20128;-75
2023/02/18 00:33:36;;;;;;;22.83;9.82;;;;;;;;;;10382688;28;20140;-74
2023/02/18 00:38:37;;;;;;;25.50;10.25;;;;;;;;;;10400259;28;20041;-75
2023/02/18 00:43:37;;;;;;;18.27;9.30;;;;;;;;;;10391919;28;20565;-73
2023/02/18 00:48:37;;;;;;;24.17;10.15;;;;;;;;;;10390841;28;20029;-72
2023/02/18 00:53:38;;;;;;;25.20;10.23;;;;;;;;;;10374711;28;20116;-77
2023/02/18 00:58:38;;;;;;;22.17;10.30;;;;;;;;;;10369046;28;20050;-75
2023/02/18 01:03:39;;;;;;;16.98;9.00;;;;;;;;;;10393188;28;20034;-75
2023/02/18 01:08:40;;;;;;;23.17;9.75;;;;;;;;;;10389474;28;20503;-75
2023/02/18 01:13:40;;;;;;;20.47;9.73;;;;;;;;;;10389764;28;20025;-77
2023/02/18 01:18:41;;;;;;;21.25;9.63;;;;;;;;;;10390417;28;20013;-74
2023/02/18 01:23:41;;;;;;;21.50;10.37;;;;;;;;;;10389674;28;20022;-72
2023/02/18 01:28:42;;;;;;;24.23;10.55;;;;;;;;;;10389862;28;20021;-75
2023/02/18 01:33:42;;;;;;;18.73;10.47;;;;;;;;;;10402122;28;20026;-75
2023/02/18 01:38:43;;;;;;;16.70;10.27;;;;;;;;;;10401734;28;20944;-71
2023/02/18 01:43:43;;;;;;;23.02;10.82;;;;;;;;;;10389485;28;20083;-75
2023/02/18 01:48:46;;;;;;;22.23;10.00;;;;;;;;;;10407115;28;20029;-76
2023/02/18 01:54:01;;;;;;;19.73;8.88;;;;;;;;;;10388387;28;20052;-70
2023/02/18 01:59:04;;;;;;;20.23;10.77;;;;;;;;;;10384816;28;20500;-71
2023/02/18 02:04:04;;;;;;;26.05;11.30;;;;;;;;;;10350743;28;20025;-70
2023/02/18 02:09:06;;;;;;;20.10;10.55;;;;;;;;;;10368557;28;20047;-77
2023/02/18 02:14:06;;;;;;;23.85;10.57;;;;;;;;;;10405520;28;20468;-74
2023/02/18 02:19:19;;;;;;;26.30;12.32;;;;;;;;;;10405563;28;20030;-75
2023/02/18 02:24:38;;;;;;;30.05;12.70;;;;;;;;;;10388444;28;20037;-71
2023/02/18 02:29:44;;;;;;;29.00;12.27;;;;;;;;;;10387791;28;20029;-71
2023/02/18 02:34:44;;;;;;;31.85;13.10;;;;;;;;;;10387033;28;20116;-74
2023/02/18 02:40:00;;;;;;;24.40;12.10;;;;;;;;;;10387409;28;20398;-70
2023/02/18 02:45:23;;;;;;;25.65;10.10;;;;;;;;;;10387256;28;20037;-71
2023/02/18 02:50:26;;;;;;;20.25;11.13;;;;;;;;;;10396255;28;21018;-71
2023/02/18 02:55:27;;;;;;;27.02;11.32;;;;;;;;;;10386408;28;20053;-75
2023/02/18 03:00:50;;;;;;;17.63;9.00;;;;;;;;;;10383011;28;20026;-72
2023/02/18 03:06:04;;;;;;;19.65;10.18;;;;;;;;;;10318444;28;20571;-70
2023/02/18 03:11:07;;;;;;;21.35;9.88;;;;;;;;;;10378649;28;20122;-70
2023/02/18 03:16:11;;;;;;;20.50;9.60;;;;;;;;;;10386505;28;20503;-69
2023/02/18 03:21:14;;;;;;;21.90;9.63;;;;;;;;;;10370955;28;20502;-75
2023/02/18 03:26:16;;;;;;;39.50;10.90;;;;;;;;;;10386787;28;20036;-70
2023/02/18 03:31:19;;;;;;;32.33;11.05;;;;;;;;;;10369668;28;20385;-76
2023/02/18 03:36:22;;;;;;;31.70;11.80;;;;;;;;;;10385827;28;20041;-76
2023/02/18 03:41:22;;;;;;;20.02;11.63;;;;;;;;;;10385702;28;20033;-76
2023/02/18 03:46:22;;;;;;;20.90;10.60;;;;;;;;;;10385442;28;20036;-73
2023/02/18 03:51:23;;;;;;;17.73;11.37;;;;;;;;;;10402300;28;20030;-70
2023/02/18 03:56:23;;;;;;;27.38;11.10;;;;;;;;;;10384871;28;20481;-76
2023/02/18 04:01:23;;;;;;;26.17;12.45;;;;;;;;;;10384820;28;20042;-76
2023/02/18 04:06:24;;;;;;;23.17;12.27;;;;;;;;;;10384796;28;20029;-71
2023/02/18 04:11:24;;;;;;;26.63;12.27;;;;;;;;;;10383656;28;20021;-75
2023/02/18 04:16:24;;;;;;;22.53;12.63;;;;;;;;;;10383512;28;20491;-75
2023/02/18 04:21:25;;;;;;;23.73;12.55;;;;;;;;;;10383581;28;20027;-72
2023/02/18 04:26:25;;;;;;;24.23;12.23;;;;;;;;;;10386180;28;20018;-74
2023/02/18 04:31:25;;;;;;;21.67;10.70;;;;;;;;;;10403700;28;20025;-75
2023/02/18 04:36:26;;;;;;;20.58;9.60;;;;;;;;;;10387628;28;20376;-74
2023/02/18 04:41:26;;;;;;;19.88;8.57;;;;;;;;;;10392741;28;20045;-71
2023/02/18 04:46:26;;;;;;;15.02;7.13;;;;;;;;;;10401035;28;20033;-76
2023/02/18 04:51:27;;;;;;;17.13;6.93;;;;;;;;;;10383890;28;20118;-73
2023/02/18 04:56:27;;;;;;;16.83;8.50;;;;;;;;;;10383301;28;20049;-69
2023/02/18 05:01:27;;;;;;;18.27;8.55;;;;;;;;;;10382914;28;20058;-76
2023/02/18 05:06:28;;;;;;;16.98;9.23;;;;;;;;;;10383859;28;20021;-75
2023/02/18 05:11:28;;;;;;;22.02;10.15;;;;;;;;;;10398071;28;20030;-74
2023/02/18 05:16:28;;;;;;;23.27;10.43;;;;;;;;;;10366125;28;20025;-77
2023/02/18 05:21:28;;;;;;;27.80;10.20;;;;;;;;;;10400362;28;20032;-74
2023/02/18 05:26:29;;;;;;;26.47;13.10;;;;;;;;;;10385196;28;20628;-72
2023/02/18 05:31:29;;;;;;;30.45;12.57;;;;;;;;;;10390218;28;20398;-70
2023/02/18 05:36:29;;;;;;;22.93;10.83;;;;;;;;;;10407977;28;20021;-71
2023/02/18 05:41:30;;;;;;;35.67;12.40;;;;;;;;;;10389569;28;20275;-73
2023/02/18 05:46:30;;;;;;;21.63;11.55;;;;;;;;;;10390130;28;20030;-78
2023/02/18 05:51:30;;;;;;;31.98;12.35;;;;;;;;;;10372730;28;20021;-77
2023/02/18 05:56:30;;;;;;;28.50;12.50;;;;;;;;;;10388601;28;20049;-76
2023/02/18 06:01:31;;;;;;;33.67;14.20;;;;;;;;;;10389165;28;20021;-77
2023/02/18 06:06:31;;;;;;;26.97;13.00;;;;;;;;;;10366067;28;20112;-77
2023/02/18 06:11:31;;;;;;;24.13;12.45;;;;;;;;;;10354052;28;20412;-75
2023/02/18 06:16:32;;;;;;;24.55;12.05;;;;;;;;;;10387620;28;20021;-77
2023/02/18 06:21:32;;;;;;;30.20;12.68;;;;;;;;;;10387338;28;20029;-73
2023/02/18 06:26:33;;;;;;;21.02;8.88;;;;;;;;;;10380438;28;20022;-74
2023/02/18 06:31:33;;;;;;;26.88;9.73;;;;;;;;;;10388205;28;20117;-74
2023/02/18 06:36:33;;;;;;;32.07;9.47;;;;;;;;;;10404103;28;20022;-71
2023/02/18 06:41:34;;;;;;;27.00;10.93;;;;;;;;;;10386134;28;20013;-75
2023/02/18 06:46:34;;;;;;;27.07;11.60;;;;;;;;;;10386817;28;20033;-75
2023/02/18 06:51:34;;;;;;;32.53;12.20;;;;;;;;;;10383782;28;20284;-76
2023/02/18 06:56:35;;;;;;;27.23;12.47;;;;;;;;;;10386493;28;20452;-76
2023/02/18 07:01:35;;;;;;;27.10;11.83;;;;;;;;;;10385203;28;20017;-75
2023/02/18 07:06:35;;;;;;;31.25;12.35;;;;;;;;;;10372996;28;20067;-76
2023/02/18 07:11:35;;;;;;;28.55;12.75;;;;;;;;;;10403129;28;20021;-74
2023/02/18 07:16:36;;;;;;;26.47;11.13;;;;;;;;;;10368326;28;20067;-77
2023/02/18 07:21:36;;;;;;;24.83;11.95;;;;;;;;;;10393936;28;20167;-76
2023/02/18 07:26:36;;;;;;;30.17;12.60;;;;;;;;;;10378433;28;20025;-75
2023/02/18 07:31:37;;;;;;;30.75;11.52;;;;;;;;;;10369912;28;20029;-78
2023/02/18 07:36:37;;;;;;;23.80;9.80;;;;;;;;;;10379436;28;20021;-76
2023/02/18 07:41:38;;;;;;;25.13;12.60;;;;;;;;;;10362576;28;20351;-73
2023/02/18 07:46:39;;;;;;;24.75;13.27;;;;;;;;;;10357755;28;20546;-77
2023/02/18 07:51:39;;;;;;;28.58;14.35;;;;;;;;;;10365375;28;20152;-78
2023/02/18 07:56:41;;;;;;;32.22;13.65;;;;;;;;;;10366060;28;20046;-81
2023/02/18 08:01:42;;;;;;;35.50;13.88;;;;;;;;;;10362334;28;20635;-79
2023/02/18 08:06:45;;;;;;;31.88;12.35;;;;;;;;;;10366278;28;20037;-78
2023/02/18 08:11:45;;;;;;;30.77;13.35;;;;;;;;;;10373248;28;20157;-74
2023/02/18 08:16:45;;;;;;;25.20;12.83;;;;;;;;;;10383862;28;20123;-76
2023/02/18 08:21:45;;;;;;;35.15;15.15;;;;;;;;;;10366827;28;20021;-74
2023/02/18 08:26:46;;;;;;;38.23;14.33;;;;;;;;;;10374335;28;20028;-81
2023/02/18 08:31:46;;;;;;;32.47;12.65;;;;;;;;;;10362023;28;20028;-79
2023/02/18 08:36:46;;;;;;;28.35;12.93;;;;;;;;;;10358519;28;20022;-79
2023/02/18 08:41:46;;;;;;;27.90;11.97;;;;;;;;;;10360150;28;20033;-76
2023/02/18 08:46:48;;;;;;;40.90;13.30;;;;;;;;;;10357636;28;20149;-75
2023/02/18 08:51:51;;;;;;;37.47;11.70;;;;;;;;;;10363266;28;20087;-75
2023/02/18 08:56:56;;;;;;;30.33;12.73;;;;;;;;;;10373211;28;20049;-77
2023/02/18 09:01:56;;;;;;;25.13;10.93;;;;;;;;;;10386250;28;20060;-79
2023/02/18 09:06:57;;;;;;;21.17;9.68;;;;;;;;;;10383717;28;20113;-76
2023/02/18 09:11:57;;;;;;;29.02;10.70;;;;;;;;;;10377193;28;20143;-73
2023/02/18 09:16:57;;;;;;;25.00;10.73;;;;;;;;;;10377268;28;20103;-79
2023/02/18 09:21:57;;;;;;;31.15;12.18;;;;;;;;;;10376797;28;20116;-78
2023/02/18 09:26:58;;;;;;;23.73;11.18;;;;;;;;;;10380979;28;20033;-79
2023/02/18 09:32:02;;;;;;;28.23;11.77;;;;;;;;;;10379866;28;20029;-78
2023/02/18 09:37:03;;;;;;;31.40;12.57;;;;;;;;;;10387581;28;20017;-79
2023/02/18 09:42:06;;;;;;;41.05;12.73;;;;;;;;;;10390165;28;20021;-78
2023/02/18 09:47:19;;;;;;;24.67;11.02;;;;;;;;;;10373130;28;20106;-80
2023/02/18 09:52:32;;;;;;;32.90;12.48;;;;;;;;;;10405598;28;20026;-81
2023/02/18 09:57:44;;;;;;;29.55;11.77;;;;;;;;;;10383115;28;20110;-80
2023/02/18 10:02:50;;;;;;;26.15;10.65;;;;;;;;;;10404961;28;20013;-80
2023/02/18 10:07:52;;;;;;;25.45;11.57;;;;;;;;;;10390543;28;20028;-84
2023/02/18 10:12:53;;;;;;;32.00;11.18;;;;;;;;;;10385587;28;20179;-77
2023/02/18 10:17:55;;;;;;;29.80;11.77;;;;;;;;;;10382131;28;20029;-77
2023/02/18 10:22:57;;;;;;;20.95;10.10;;;;;;;;;;10372173;28;20021;-81
2023/02/18 10:27:58;;;;;;;25.20;9.25;;;;;;;;;;10372595;28;20032;-79
2023/02/18 10:33:17;;;;;;;17.65;9.32;;;;;;;;;;10390354;28;20033;-85
2023/02/18 10:38:35;;;;;;;28.17;10.38;;;;;;;;;;10376076;28;20074;-76
2023/02/18 10:43:38;;;;;;;16.58;8.63;;;;;;;;;;10402947;28;20143;-83
2023/02/18 10:48:51;;;;;;;21.90;9.27;;;;;;;;;;10379246;28;20038;-79
2023/02/18 10:53:52;;;;;;;21.85;8.88;;;;;;;;;;10384299;28;20041;-79
2023/02/18 10:58:59;;;;;;;18.40;8.63;;;;;;;;;;10343138;28;1137138;-80
2023/02/18 11:04:05;;;;;;;24.55;8.73;;;;;;;;;;10386362;28;20112;-79
2023/02/18 11:09:06;;;;;;;24.70;9.43;;;;;;;;;;10387956;28;20034;-82
2023/02/18 11:14:07;;;;;;;27.15;10.27;;;;;;;;;;10400457;28;21261;-77
2023/02/18 11:19:26;;;;;;;25.15;9.07;;;;;;;;;;10404508;28;20009;-82
2023/02/18 11:24:26;;;;;;;22.58;7.88;;;;;;;;;;10408613;28;20029;-83
2023/02/18 11:29:28;;;;;;;15.45;7.70;;;;;;;;;;10377631;28;20017;-81
2023/02/18 11:34:29;;;;;;;17.25;7.20;;;;;;;;;;10385880;28;20033;-85
2023/02/18 11:39:31;;;;;;;18.88;8.25;;;;;;;;;;10385092;28;20561;-79
2023/02/18 11:44:32;;;;;;;17.00;8.18;;;;;;;;;;10379727;28;20472;-82
2023/02/18 11:49:33;;;;;;;21.30;8.93;;;;;;;;;;10375637;28;20495;-83
2023/02/18 11:54:34;;;;;;;19.25;7.45;;;;;;;;;;10384111;28;20132;-76
2023/02/18 11:59:36;;;;;;;15.35;4.50;;;;;;;;;;10400570;28;20044;-80
2023/02/18 12:04:59;;;;;;;9.50;4.35;;;;;;;;;;10385826;28;20028;-83
2023/02/18 12:10:09;;;;;;;11.85;5.30;;;;;;;;;;10386382;28;20240;-81
2023/02/18 12:15:14;;;;;;;11.15;4.78;;;;;;;;;;10382992;28;20026;-81
2023/02/18 12:20:27;;;;;;;8.95;4.25;;;;;;;;;;10400545;28;20052;-81
2023/02/18 12:25:27;;;;;;;17.75;7.28;;;;;;;;;;10410043;28;20461;-80
2023/02/18 12:30:48;;;;;;;13.57;5.20;;;;;;;;;;10400510;28;20029;-81
2023/02/18 12:35:48;;;;;;;12.35;4.85;;;;;;;;;;10370884;28;20042;-83
2023/02/18 12:41:07;;;;;;;10.73;4.77;;;;;;;;;;10408930;28;20069;-81
2023/02/18 12:46:31;;;;;;;10.68;4.65;;;;;;;;;;10392251;28;20287;-80
2023/02/18 12:51:52;;;;;;;13.35;4.53;;;;;;;;;;10394805;28;20527;-78
2023/02/18 12:56:52;;;;;;;12.13;4.72;;;;;;;;;;10376008;28;20042;-82
2023/02/18 13:02:05;;;;;;;8.15;4.50;;;;;;;;;;10389848;28;20415;-80
2023/02/18 13:07:24;;;;;;;8.13;3.15;;;;;;;;;;10386651;28;20112;-80
2023/02/18 13:12:34;;;;;;;7.18;2.58;;;;;;;;;;10379108;28;20029;-75
2023/02/18 13:17:35;;;;;;;12.82;3.22;;;;;;;;;;10385298;28;20373;-81
2023/02/18 13:22:36;;;;;;;6.60;2.22;;;;;;;;;;10385431;28;20116;-81
2023/02/18 13:27:55;;;;;;;6.47;2.78;;;;;;;;;;10387882;28;20500;-82
2023/02/18 13:32:59;;;;;;;6.50;2.30;;;;;;;;;;10387442;28;20037;-76
2023/02/18 13:38:21;;;;;;;5.35;2.40;;;;;;;;;;10387611;28;20485;-77
2023/02/18 13:43:27;;;;;;;7.70;2.55;;;;;;;;;;10386383;28;20029;-80
2023/02/18 13:48:28;;;;;;;9.68;3.38;;;;;;;;;;10401763;28;20136;-75
2023/02/18 13:53:41;;;;;;;8.88;3.65;;;;;;;;;;10391347;28;20033;-78
2023/02/18 13:58:47;;;;;;;10.00;4.00;;;;;;;;;;10392912;28;20053;-79
2023/02/18 14:03:52;;;;;;;11.52;4.63;;;;;;;;;;10379871;28;20037;-75
2023/02/18 14:09:10;;;;;;;12.82;5.78;;;;;;;;;;10384027;28;20120;-74
2023/02/18 14:14:32;;;;;;;10.32;5.30;;;;;;;;;;10376574;28;20034;-76
2023/02/18 14:19:32;;;;;;;10.05;4.30;;;;;;;;;;10384382;28;20032;-79
2023/02/18 14:30:23;;;;;;;10.32;5.10;;;;;;;;;;10364469;28;20060;-76
2023/02/18 14:35:51;;;;;;;19.08;5.57;;;;;;;;;;10355161;28;20565;-74
2023/02/18 14:41:03;;;;;;;11.85;4.90;;;;;;;;;;10359286;28;20065;-76
2023/02/18 14:46:27;;;;;;;9.00;4.72;;;;;;;;;;10355818;28;20030;-77
2023/02/18 14:51:30;;;;;;;11.05;5.03;;;;;;;;;;10360695;28;20029;-77
2023/02/18 14:56:37;;;;;;;9.18;4.70;;;;;;;;;;10343183;28;20022;-77
2023/02/18 15:01:39;;;;;;;9.67;5.40;;;;;;;;;;10363671;28;20123;-75
2023/02/18 15:06:39;;;;;;;9.25;4.28;;;;;;;;;;10359524;28;20416;-76
2023/02/18 15:11:48;;;;;;;13.27;4.65;;;;;;;;;;10373141;28;20036;-79
2023/02/18 15:16:59;;;;;;;12.30;4.85;;;;;;;;;;10358485;28;20018;-78
2023/02/18 15:22:02;;;;;;;15.85;5.50;;;;;;;;;;10346672;28;20480;-78
2023/02/18 15:27:09;;;;;;;13.00;4.53;;;;;;;;;;10376076;28;20085;-78
2023/02/18 15:32:18;;;;;;;10.40;5.40;;;;;;;;;;10355726;28;20041;-79
2023/02/18 15:37:18;;;;;;;;;;;;;;;;;;10346134;28;20139;-74
2023/02/18 15:42:21;;;;;;;12.57;5.97;;;;;;;;;;10329371;28;20043;-76
2023/02/18 15:47:23;;;;;;;13.05;5.60;;;;;;;;;;10361865;28;20021;-79
2023/02/18 15:52:30;;;;;;;15.05;5.07;;;;;;;;;;10327057;28;20052;-75
2023/02/18 15:57:31;;;;;;;15.02;6.03;;;;;;;;;;10343438;28;20626;-76
2023/02/18 16:02:32;;;;;;;12.15;4.93;;;;;;;;;;10330470;28;20329;-74
2023/02/18 16:07:37;;;;;;;12.47;5.17;;;;;;;;;;10341492;28;20042;-75
2023/02/18 16:13:14;;;;;;;11.88;5.70;;;;;;;;;;10336986;28;20320;-79
2023/02/18 16:18:30;;;;;;;25.92;6.35;;;;;;;;;;10352181;28;20026;-79
2023/02/18 16:23:42;;;;;;;10.90;5.30;;;;;;;;;;10321225;28;20048;-75
2023/02/18 16:28:44;;;;;;;12.35;5.20;;;;;;;;;;10344639;28;20058;-78
2023/02/18 16:33:44;;;;;;;15.25;5.63;;;;;;;;;;10329500;28;20034;-75
2023/02/18 16:38:54;;;;;;;17.27;6.45;;;;;;;;;;10331096;28;20415;-78
2023/02/18 16:43:56;;;;;;;16.60;6.25;;;;;;;;;;10328880;28;20026;-75
2023/02/18 16:48:56;;;;;;;11.05;5.55;;;;;;;;;;10330142;28;20030;-77
2023/02/18 16:53:56;;;;;;;12.50;6.18;;;;;;;;;;10343301;28;20667;-76
2023/02/18 16:58:57;;;;;;;13.50;6.32;;;;;;;;;;10339859;28;20551;-80
2023/02/18 17:03:58;;;;;;;11.48;5.60;;;;;;;;;;10333147;28;20108;-72
2023/02/18 17:08:58;;;;;;;15.27;7.10;;;;;;;;;;10351278;28;20427;-80
2023/02/18 17:13:59;;;;;;;15.32;6.28;;;;;;;;;;10347178;28;20536;-81
2023/02/18 17:19:29;;;;;;;15.00;6.30;;;;;;;;;;10317042;28;20030;-79
2023/02/18 17:24:29;;;;;;;10.95;5.70;;;;;;;;;;10368422;28;20043;-80
2023/02/18 17:29:30;;;;;;;14.95;7.93;;;;;;;;;;10328704;28;20474;-79
2023/02/18 17:34:40;;;;;;;20.33;7.00;;;;;;;;;;10339511;28;20081;-80
2023/02/18 17:39:41;;;;;;;12.60;6.97;;;;;;;;;;10347312;28;20369;-76
2023/02/18 17:44:41;;;;;;;12.43;6.30;;;;;;;;;;10335275;28;20046;-76
2023/02/18 17:49:41;;;;;;;21.08;8.80;;;;;;;;;;10328937;28;20027;-78
2023/02/18 17:54:41;;;;;;;17.95;8.98;;;;;;;;;;10329175;28;20030;-77
2023/02/18 17:59:42;;;;;;;17.75;9.27;;;;;;;;;;10333746;28;20484;-77
2023/02/18 18:04:42;;;;;;;17.77;9.30;;;;;;;;;;10327099;28;20034;-74
2023/02/18 18:09:42;;;;;;;25.40;9.83;;;;;;;;;;10322506;28;20118;-76
2023/02/18 18:14:42;;;;;;;22.38;11.52;;;;;;;;;;10323761;28;20408;-75
2023/02/18 18:19:43;;;;;;;26.38;11.35;;;;;;;;;;10323061;28;20416;-75
2023/02/18 18:24:43;;;;;;;25.27;11.18;;;;;;;;;;10346711;28;20432;-76
2023/02/18 18:29:43;;;;;;;25.98;12.93;;;;;;;;;;10342847;28;20104;-80
2023/02/18 18:34:45;;;;;;;18.37;9.10;;;;;;;;;;10345821;28;20136;-76
2023/02/18 18:39:46;;;;;;;15.60;7.35;;;;;;;;;;10326257;28;20273;-78
2023/02/18 18:44:46;;;;;;;21.50;9.10;;;;;;;;;;10350114;28;20033;-76
2023/02/18 18:49:46;;;;;;;19.73;9.88;;;;;;;;;;10341031;28;20029;-75
2023/02/18 18:54:47;;;;;;;22.77;8.23;;;;;;;;;;10337370;28;20044;-74
2023/02/18 18:59:47;;;;;;;19.27;10.70;;;;;;;;;;10345630;28;20022;-79
2023/02/18 19:04:50;;;;;;;19.75;9.88;;;;;;;;;;10350509;28;20095;-78
2023/02/18 19:09:51;;;;;;;16.25;8.57;;;;;;;;;;10353409;28;20042;-78
2023/02/18 19:14:54;;;;;;;16.65;8.38;;;;;;;;;;10337676;28;20034;-80
2023/02/18 19:20:04;;;;;;;23.15;9.63;;;;;;;;;;10324814;28;20030;-76
2023/02/18 19:25:05;;;;;;;18.08;9.10;;;;;;;;;;10336852;28;20045;-74
2023/02/18 19:30:05;;;;;;;17.40;8.70;;;;;;;;;;10328323;28;20058;-77
2023/02/18 19:35:06;;;;;;;22.80;10.90;;;;;;;;;;10351776;28;20030;-76
2023/02/18 19:40:20;;;;;;;24.77;9.98;;;;;;;;;;10335356;28;20096;-78
2023/02/18 19:45:21;;;;;;;21.23;9.82;;;;;;;;;;10335130;28;20034;-74
2023/02/18 19:50:21;;;;;;;25.25;8.57;;;;;;;;;;10343338;28;20041;-80
2023/02/18 19:55:28;;;;;;;20.48;8.98;;;;;;;;;;10344363;28;20049;-81
2023/02/18 20:00:31;;;;;;;17.58;8.75;;;;;;;;;;10332881;28;20030;-77
2023/02/18 20:05:35;;;;;;;34.90;17.83;;;;;;;;;;10324566;28;20029;-76
2023/02/18 20:10:35;;;;;;;19.02;9.48;;;;;;;;;;10318930;28;20049;-81
2023/02/18 20:15:39;;;;;;;20.65;8.23;;;;;;;;;;10345623;28;20029;-78
2023/02/18 20:20:39;;;;;;;20.63;8.70;;;;;;;;;;10340363;28;20107;-75
2023/02/18 20:25:39;;;;;;;19.15;9.93;;;;;;;;;;10325231;28;20037;-80
2023/02/18 20:30:40;;;;;;;21.10;8.85;;;;;;;;;;10310993;28;20096;-76
2023/02/18 20:35:40;;;;;;;19.20;9.47;;;;;;;;;;10290088;28;20113;-78
2023/02/18 20:40:41;;;;;;;22.67;8.65;;;;;;;;;;10306076;28;20029;-79
2023/02/18 20:45:41;;;;;;;19.75;9.35;;;;;;;;;;10302793;28;20037;-76
2023/02/18 20:50:42;;;;;;;16.20;7.95;;;;;;;;;;10308201;28;20038;-77
2023/02/18 20:55:45;;;;;;;18.50;8.68;;;;;;;;;;10307491;28;20033;-74
2023/02/18 21:00:53;;;;;;;18.10;9.10;;;;;;;;;;10317018;28;20058;-74
2023/02/18 21:05:55;;;;;;;20.67;8.98;;;;;;;;;;10314329;28;20108;-80
2023/02/18 21:10:56;;;;;;;20.83;8.63;;;;;;;;;;10314961;28;20092;-74
2023/02/18 21:15:56;;;;;;;23.73;10.25;;;;;;;;;;10315760;28;20117;-76
2023/02/18 21:20:56;;;;;;;19.50;9.93;;;;;;;;;;10319282;28;20018;-80
2023/02/18 21:26:13;;;;;;;23.95;9.18;;;;;;;;;;10321523;28;20224;-76
2023/02/18 21:31:14;;;;;;;18.70;8.55;;;;;;;;;;10318151;28;20056;-77
2023/02/18 21:36:15;;;;;;;20.67;8.75;;;;;;;;;;10312223;28;20034;-74
2023/02/18 21:41:16;;;;;;;14.90;8.30;;;;;;;;;;10305966;28;20026;-82
2023/02/18 21:46:21;;;;;;;23.80;8.73;;;;;;;;;;10310978;28;20101;-79
2023/02/18 21:56:40;;;;;;;24.90;8.98;;;;;;;;;;10319479;28;20030;-79
2023/02/18 22:01:41;;;;;;;20.47;8.43;;;;;;;;;;10316482;28;20035;-82
2023/02/18 22:06:41;;;;;;;19.15;9.63;;;;;;;;;;10317758;28;20093;-82
2023/02/18 22:11:42;;;;;;;15.98;8.60;;;;;;;;;;10305837;28;20049;-82
2023/02/18 22:16:42;;;;;;;21.77;11.20;;;;;;;;;;10306732;28;20026;-81
2023/02/18 22:21:42;;;;;;;21.60;10.18;;;;;;;;;;10310845;28;20274;-81
2023/02/18 22:26:45;;;;;;;26.20;10.18;;;;;;;;;;10320313;28;20100;-82
2023/02/18 22:31:46;;;;;;;24.60;10.30;;;;;;;;;;10339131;28;20030;-82
2023/02/18 22:36:46;;;;;;;25.17;9.55;;;;;;;;;;10338971;28;20480;-83
2023/02/18 22:41:46;;;;;;;21.55;9.68;;;;;;;;;;10331064;28;20021;-82
2023/02/18 22:46:46;;;;;;;20.35;10.30;;;;;;;;;;10337918;28;20503;-82
2023/02/18 22:51:49;;;;;;;23.65;9.55;;;;;;;;;;10338201;28;20456;-81
2023/02/18 22:56:49;;;;;;;21.60;10.30;;;;;;;;;;10338468;28;20715;-80
2023/02/18 23:01:51;;;;;;;17.70;9.80;;;;;;;;;;10343490;28;20400;-79
2023/02/18 23:06:52;;;;;;;20.02;10.02;;;;;;;;;;10350385;28;20149;-76
2023/02/18 23:11:54;;;;;;;22.53;8.43;;;;;;;;;;10358981;28;20109;-78
2023/02/18 23:17:13;;;;;;;19.90;9.57;;;;;;;;;;10336319;28;20018;-77
2023/02/18 23:22:15;;;;;;;17.17;7.85;;;;;;;;;;10364353;28;20590;-75
2023/02/18 23:27:20;;;;;;;25.60;11.57;;;;;;;;;;10361955;28;20058;-82
2023/02/18 23:32:20;;;;;;;18.13;8.57;;;;;;;;;;10341843;28;20106;-79
2023/02/18 23:38:02;;;;;;;20.45;9.07;;;;;;;;;;10343348;28;20021;-76
2023/02/18 23:42:41;;;;;;;20.58;8.80;;;;;;;;;;10362804;28;20053;-79
2023/02/18 23:47:41;;;;;;;21.95;8.00;;;;;;;;;;10359590;28;20136;-77
2023/02/18 23:52:42;;;;;;;14.57;7.03;;;;;;;;;;10360257;28;20625;-80
2023/02/18 23:57:42;;;;;;;17.05;7.28;;;;;;;;;;10360366;28;20018;-76
